createdAt,value
2022-08-09T00:00:46.095Z,16.78
2022-08-09T00:01:54.770Z,16.76
2022-08-09T00:02:57.906Z,16.81
2022-08-09T00:04:10.160Z,16.64
2022-08-09T00:06:16.476Z,16.63
2022-08-09T00:06:46.916Z,16.63
2022-08-09T00:07:49.231Z,16.54
2022-08-09T00:08:57.479Z,16.57
2022-08-09T00:09:59.903Z,16.58
2022-08-09T00:11:05.900Z,16.60
2022-08-09T00:12:24.485Z,16.82
2022-08-09T00:13:27.433Z,16.87
2022-08-09T00:14:36.400Z,16.88
2022-08-09T00:15:59.196Z,16.79
2022-08-09T00:17:03.920Z,16.79
2022-08-09T00:18:11.389Z,16.91
2022-08-09T00:19:15.007Z,17.01
2022-08-09T00:20:21.210Z,16.82
2022-08-09T00:21:24.323Z,16.90
2022-08-09T00:22:35.032Z,16.78
2022-08-09T00:23:55.723Z,16.47
2022-08-09T00:25:00.833Z,16.62
2022-08-09T00:26:07.586Z,16.79
2022-08-09T00:27:09.834Z,16.86
2022-08-09T00:28:12.167Z,16.98
2022-08-09T00:30:10.381Z,17.14
2022-08-09T00:30:38.718Z,16.85
2022-08-09T00:31:59.612Z,16.75
2022-08-09T00:33:03.783Z,16.70
2022-08-09T00:34:06.266Z,16.75
2022-08-09T00:35:09.977Z,16.91
2022-08-09T00:36:12.753Z,17.13
2022-08-09T00:37:16.301Z,17.36
2022-08-09T00:38:21.401Z,17.51
2022-08-09T00:40:13.335Z,17.58
2022-08-09T00:40:52.495Z,17.61
2022-08-09T00:44:13.947Z,17.64
2022-08-09T00:44:19.390Z,17.70
2022-08-09T00:44:40.772Z,17.78
2022-08-09T00:45:50.593Z,17.89
2022-08-09T00:47:05.516Z,17.96
2022-08-09T00:48:08.227Z,18.03
2022-08-09T00:49:17.834Z,18.06
2022-08-09T00:50:24.045Z,18.13
2022-08-09T00:51:27.163Z,18.18
2022-08-09T00:52:37.225Z,18.16
2022-08-09T00:53:40.539Z,18.16
2022-08-09T00:54:43.060Z,18.17
2022-08-09T00:56:05.226Z,18.12
2022-08-09T00:57:10.612Z,18.23
2022-08-09T00:58:14.525Z,18.28
2022-08-09T00:59:41.134Z,18.37
2022-08-09T01:00:50.536Z,18.39
2022-08-09T01:01:53.478Z,18.39
2022-08-09T01:03:10.946Z,18.42
2022-08-09T01:04:18.936Z,18.39
2022-08-09T01:05:46.386Z,18.38
2022-08-09T01:07:16.584Z,18.45
2022-08-09T01:08:48.832Z,18.46
2022-08-09T01:10:03.577Z,18.42
2022-08-09T01:11:29.639Z,18.32
2022-08-09T01:12:37.304Z,18.38
2022-08-09T01:13:59.140Z,18.32
2022-08-09T01:15:16.998Z,18.31
2022-08-09T01:16:24.792Z,18.41
2022-08-09T01:17:38.931Z,18.47
2022-08-09T01:18:47.552Z,18.47
2022-08-09T01:20:19.881Z,18.54
2022-08-09T01:22:16.888Z,18.58
2022-08-09T01:24:03.530Z,18.58
2022-08-09T01:25:41.719Z,18.59
2022-08-09T01:26:53.930Z,18.53
2022-08-09T01:27:57.962Z,18.57
2022-08-09T01:29:01.715Z,18.53
2022-08-09T01:30:08.359Z,18.34
2022-08-09T01:32:29.703Z,18.32
2022-08-09T01:32:56.842Z,18.36
2022-08-09T01:34:04.297Z,18.36
2022-08-09T01:35:44.871Z,18.45
2022-08-09T01:36:49.830Z,18.45
2022-08-09T01:38:08.078Z,18.34
2022-08-09T01:39:14.882Z,18.36
2022-08-09T01:40:23.283Z,18.46
2022-08-09T01:41:35.652Z,18.51
2022-08-09T01:42:39.704Z,18.56
2022-08-09T01:43:51.964Z,18.55
2022-08-09T01:44:55.671Z,18.43
2022-08-09T01:45:58.622Z,18.40
2022-08-09T01:47:02.673Z,18.34
2022-08-09T01:48:06.377Z,18.43
2022-08-09T01:49:12.781Z,18.44
2022-08-09T01:50:17.952Z,18.38
2022-08-09T01:51:33.700Z,18.44
2022-08-09T01:52:37.787Z,18.38
2022-08-09T01:53:45.096Z,18.48
2022-08-09T01:54:56.739Z,18.51
2022-08-09T01:56:00.586Z,18.44
2022-08-09T01:57:26.248Z,18.42
2022-08-09T01:58:32.667Z,18.38
2022-08-09T01:59:50.942Z,18.48
2022-08-09T02:00:58.066Z,18.36
2022-08-09T02:02:02.326Z,18.37
2022-08-09T02:03:07.623Z,18.38
2022-08-09T02:04:16.569Z,18.42
2022-08-09T02:05:37.952Z,18.44
2022-08-09T02:07:05.135Z,18.43
2022-08-09T02:08:40.716Z,18.39
2022-08-09T02:09:42.942Z,18.32
2022-08-09T02:10:51.242Z,18.28
2022-08-09T02:11:54.337Z,18.21
2022-08-09T02:13:06.282Z,18.21
2022-08-09T02:14:09.904Z,18.07
2022-08-09T02:15:19.505Z,18.03
2022-08-09T02:16:30.932Z,17.94
2022-08-09T02:18:00.970Z,17.66
2022-08-09T02:19:03.378Z,17.55
2022-08-09T02:20:08.558Z,17.46
2022-08-09T02:21:22.109Z,17.30
2022-08-09T02:22:46.380Z,17.18
2022-08-09T02:23:56.548Z,17.10
2022-08-09T02:25:02.526Z,17.19
2022-08-09T02:26:06.568Z,16.89
2022-08-09T02:27:13.021Z,17.05
2022-08-09T02:28:27.274Z,17.04
2022-08-09T02:29:33.717Z,16.99
2022-08-09T02:30:47.574Z,16.98
2022-08-09T02:31:55.970Z,16.96
2022-08-09T02:33:00.867Z,16.86
2022-08-09T02:34:13.145Z,16.61
2022-08-09T02:36:01.070Z,16.44
2022-08-09T02:36:52.673Z,16.42
2022-08-09T02:38:00.219Z,16.36
2022-08-09T02:39:14.626Z,16.26
2022-08-09T02:40:31.362Z,16.13
2022-08-09T02:41:41.802Z,16.24
2022-08-09T02:42:51.170Z,16.12
2022-08-09T02:43:59.235Z,16.09
2022-08-09T02:45:06.826Z,16.15
2022-08-09T02:46:11.703Z,16.05
2022-08-09T02:47:16.503Z,16.01
2022-08-09T02:48:31.230Z,15.95
2022-08-09T02:49:41.522Z,15.84
2022-08-09T02:50:51.841Z,15.85
2022-08-09T02:52:00.129Z,15.96
2022-08-09T02:53:31.619Z,15.86
2022-08-09T02:54:54.264Z,15.67
2022-08-09T02:55:59.701Z,15.64
2022-08-09T02:57:13.929Z,15.75
2022-08-09T02:58:36.945Z,15.78
2022-08-09T03:00:20.872Z,15.66
2022-08-09T03:01:08.225Z,15.54
2022-08-09T03:02:16.902Z,15.48
2022-08-09T03:03:37.130Z,15.35
2022-08-09T03:04:45.534Z,15.38
2022-08-09T03:05:50.403Z,15.43
2022-08-09T03:07:12.441Z,15.36
2022-08-09T03:08:18.226Z,15.29
2022-08-09T03:09:22.592Z,15.21
2022-08-09T03:10:27.529Z,15.24
2022-08-09T03:12:05.719Z,15.09
2022-08-09T03:12:54.800Z,15.07
2022-08-09T03:14:01.297Z,15.09
2022-08-09T03:15:05.739Z,15.15
2022-08-09T03:16:09.057Z,15.09
2022-08-09T03:17:16.615Z,15.09
2022-08-09T03:18:30.793Z,15.04
2022-08-09T03:19:58.371Z,15.03
2022-08-09T03:20:59.331Z,15.00
2022-08-09T03:22:03.310Z,15.08
2022-08-09T03:23:15.083Z,15.01
2022-08-09T03:24:31.614Z,15.08
2022-08-09T03:25:58.339Z,14.84
2022-08-09T03:27:08.063Z,14.72
2022-08-09T03:28:11.579Z,14.74
2022-08-09T03:29:23.151Z,14.79
2022-08-09T03:30:29.570Z,14.92
2022-08-09T03:31:42.724Z,14.89
2022-08-09T03:33:17.630Z,14.82
2022-08-09T03:34:21.660Z,14.80
2022-08-09T03:36:11.160Z,14.78
2022-08-09T03:36:58.245Z,14.78
2022-08-09T03:38:03.352Z,14.79
2022-08-09T03:39:06.049Z,14.82
2022-08-09T03:40:09.078Z,14.89
2022-08-09T03:41:18.247Z,14.91
2022-08-09T03:42:21.080Z,14.91
2022-08-09T03:43:32.218Z,14.90
2022-08-09T03:44:35.382Z,14.85
2022-08-09T03:46:05.177Z,14.71
2022-08-09T03:47:01.171Z,14.51
2022-08-09T03:48:03.810Z,14.43
2022-08-09T03:49:08.144Z,14.50
2022-08-09T03:50:12.425Z,14.57
2022-08-09T03:51:55.509Z,14.69
2022-08-09T03:52:40.376Z,14.78
2022-08-09T03:53:44.729Z,14.71
2022-08-09T03:54:49.547Z,14.77
2022-08-09T03:55:53.501Z,14.79
2022-08-09T03:56:59.235Z,14.78
2022-08-09T03:58:06.390Z,14.59
2022-08-09T03:59:21.006Z,14.42
2022-08-09T04:00:30.898Z,14.41
2022-08-09T04:01:35.701Z,14.51
2022-08-09T04:02:39.715Z,14.64
2022-08-09T04:04:02.083Z,14.67
2022-08-09T04:05:26.643Z,14.74
2022-08-09T04:06:30.325Z,14.64
2022-08-09T04:07:47.368Z,14.57
2022-08-09T04:08:55.270Z,14.62
2022-08-09T04:09:57.651Z,14.77
2022-08-09T04:11:01.728Z,14.90
2022-08-09T04:12:11.833Z,15.01
2022-08-09T04:13:14.477Z,15.14
2022-08-09T04:14:53.593Z,15.15
2022-08-09T04:16:17.934Z,14.95
2022-08-09T04:17:08.244Z,14.79
2022-08-09T04:18:16.421Z,14.76
2022-08-09T04:19:42.761Z,14.85
2022-08-09T04:20:42.872Z,14.83
2022-08-09T04:21:47.140Z,14.67
2022-08-09T04:22:50.265Z,14.61
2022-08-09T04:23:54.163Z,14.69
2022-08-09T04:25:01.283Z,14.83
2022-08-09T04:26:05.738Z,15.01
2022-08-09T04:27:07.967Z,15.11
2022-08-09T04:28:12.496Z,15.24
2022-08-09T04:29:15.451Z,15.35
2022-08-09T04:30:20.785Z,15.86
2022-08-09T04:31:37.691Z,17.07
2022-08-09T04:32:50.689Z,18.34
2022-08-09T04:33:56.986Z,19.38
2022-08-09T04:35:01.948Z,19.87
2022-08-09T04:36:07.047Z,20.66
2022-08-09T04:37:10.150Z,21.12
2022-08-09T04:38:18.435Z,21.75
2022-08-09T04:39:20.812Z,22.14
2022-08-09T04:40:45.739Z,22.68
2022-08-09T04:41:48.423Z,23.08
2022-08-09T04:42:51.709Z,23.03
2022-08-09T04:44:06.289Z,22.94
2022-08-09T04:45:12.554Z,23.40
2022-08-09T04:46:19.285Z,23.89
2022-08-09T04:47:59.214Z,24.50
2022-08-09T04:49:00.370Z,25.06
2022-08-09T04:50:02.768Z,25.41
2022-08-09T04:51:05.691Z,25.98
2022-08-09T04:52:09.724Z,26.04
2022-08-09T04:53:13.399Z,25.61
2022-08-09T04:54:16.416Z,25.90
2022-08-09T04:55:19.059Z,26.08
2022-08-09T04:56:26.243Z,26.70
2022-08-09T04:57:59.011Z,27.20
2022-08-09T04:58:51.758Z,27.92
2022-08-09T04:59:58.010Z,28.12
2022-08-09T05:01:02.129Z,28.00
2022-08-09T05:02:04.737Z,28.61
2022-08-09T05:03:30.575Z,28.72
2022-08-09T05:04:31.785Z,28.66
2022-08-09T05:05:52.574Z,28.74
2022-08-09T05:06:57.293Z,29.52
2022-08-09T05:08:01.051Z,30.25
2022-08-09T05:09:03.677Z,30.20
2022-08-09T05:10:06.767Z,29.86
2022-08-09T05:11:10.256Z,29.44
2022-08-09T05:12:13.681Z,29.59
2022-08-09T05:13:18.229Z,29.75
2022-08-09T05:14:22.860Z,30.08
2022-08-09T05:15:38.505Z,30.58
2022-08-09T05:16:59.328Z,30.93
2022-08-09T05:18:50.536Z,30.71
2022-08-09T05:19:26.063Z,30.34
2022-08-09T05:20:34.432Z,30.05
2022-08-09T05:21:47.300Z,29.68
2022-08-09T05:23:53.742Z,29.77
2022-08-09T05:24:21.061Z,30.21
2022-08-09T05:25:32.387Z,29.72
2022-08-09T05:26:46.301Z,29.62
2022-08-09T05:27:53.033Z,29.56
2022-08-09T05:28:57.811Z,29.35
2022-08-09T05:30:02.241Z,29.87
2022-08-09T05:31:09.466Z,29.88
2022-08-09T05:32:12.441Z,29.71
2022-08-09T05:33:16.460Z,29.35
2022-08-09T05:34:18.762Z,29.93
2022-08-09T05:35:22.406Z,29.66
2022-08-09T05:36:26.415Z,29.44
2022-08-09T05:37:31.551Z,29.86
2022-08-09T05:38:48.705Z,29.86
2022-08-09T05:39:52.334Z,29.82
2022-08-09T05:40:54.774Z,30.66
2022-08-09T05:42:01.473Z,30.54
2022-08-09T05:43:05.293Z,30.26
2022-08-09T05:44:07.677Z,30.11
2022-08-09T05:45:14.346Z,29.56
2022-08-09T05:46:17.039Z,29.63
2022-08-09T05:47:23.892Z,29.81
2022-08-09T05:48:32.894Z,29.65
2022-08-09T05:50:23.353Z,29.66
2022-08-09T05:51:16.856Z,30.29
2022-08-09T05:52:24.763Z,30.09
2022-08-09T05:53:33.211Z,30.24
2022-08-09T05:54:37.249Z,29.94
2022-08-09T05:55:42.150Z,30.18
2022-08-09T05:56:55.253Z,29.79
2022-08-09T05:57:59.420Z,30.27
2022-08-09T05:59:02.050Z,29.81
2022-08-09T06:00:07.730Z,29.49
2022-08-09T06:01:15.989Z,29.60
2022-08-09T06:02:19.309Z,29.66
2022-08-09T06:03:22.236Z,29.00
2022-08-09T06:04:37.826Z,29.79
2022-08-09T06:06:05.921Z,30.42
2022-08-09T06:07:09.989Z,31.08
2022-08-09T06:08:13.166Z,30.78
2022-08-09T06:09:40.727Z,30.85
2022-08-09T06:10:44.208Z,30.26
2022-08-09T06:11:57.256Z,29.86
2022-08-09T06:13:11.811Z,29.57
2022-08-09T06:14:22.317Z,30.11
2022-08-09T06:15:27.890Z,30.30
2022-08-09T06:16:31.993Z,30.37
2022-08-09T06:17:40.061Z,30.90
2022-08-09T06:18:46.661Z,30.88
2022-08-09T06:19:52.385Z,30.17
2022-08-09T06:20:59.342Z,30.49
2022-08-09T06:22:14.903Z,30.40
2022-08-09T06:23:19.115Z,30.90
2022-08-09T06:24:22.717Z,31.05
2022-08-09T06:25:29.195Z,31.59
2022-08-09T06:26:31.860Z,31.77
2022-08-09T06:27:42.744Z,32.17
2022-08-09T06:29:00.963Z,32.08
2022-08-09T06:30:14.211Z,31.27
2022-08-09T06:31:19.210Z,30.79
2022-08-09T06:33:00.647Z,32.13
2022-08-09T06:33:57.229Z,30.30
2022-08-09T06:35:00.707Z,32.20
2022-08-09T06:36:04.064Z,32.57
2022-08-09T06:37:10.658Z,32.27
2022-08-09T06:38:15.872Z,31.37
2022-08-09T06:39:19.255Z,30.02
2022-08-09T06:40:24.131Z,31.31
2022-08-09T06:41:58.818Z,31.05
2022-08-09T06:42:52.748Z,28.99
2022-08-09T06:43:59.580Z,28.73
2022-08-09T06:45:52.123Z,29.17
2022-08-09T06:46:39.475Z,29.59
2022-08-09T06:47:43.968Z,31.21
2022-08-09T06:48:47.703Z,31.65
2022-08-09T06:50:13.505Z,32.51
2022-08-09T06:51:16.550Z,31.04
2022-08-09T06:52:19.957Z,29.57
2022-08-09T06:53:26.776Z,29.55
2022-08-09T06:54:36.049Z,28.83
2022-08-09T06:55:41.596Z,28.33
2022-08-09T06:56:45.464Z,27.71
2022-08-09T06:58:02.814Z,27.63
2022-08-09T07:00:49.541Z,28.65
2022-08-09T07:00:52.680Z,28.77
2022-08-09T07:01:54.274Z,28.29
2022-08-09T07:03:05.349Z,28.71
2022-08-09T07:04:10.401Z,28.17
2022-08-09T07:05:14.197Z,27.37
2022-08-09T07:06:18.680Z,25.93
2022-08-09T07:07:59.858Z,24.08
2022-08-09T07:08:49.708Z,24.20
2022-08-09T07:10:17.917Z,23.55
2022-08-09T07:11:25.232Z,22.51
2022-08-09T07:12:38.532Z,22.36
2022-08-09T07:13:45.284Z,22.03
2022-08-09T07:16:36.199Z,21.90
2022-08-09T07:16:42.563Z,21.91
2022-08-09T07:18:02.139Z,21.87
2022-08-09T07:19:10.964Z,21.99
2022-08-09T07:20:26.619Z,22.27
2022-08-09T07:21:30.848Z,22.46
2022-08-09T07:22:43.819Z,22.25
2022-08-09T07:23:58.273Z,22.17
2022-08-09T07:25:01.491Z,22.57
2022-08-09T07:26:16.866Z,22.87
2022-08-09T07:27:33.387Z,22.91
2022-08-09T07:29:09.006Z,23.07
2022-08-09T07:30:04.448Z,22.89
2022-08-09T07:31:09.314Z,22.81
2022-08-09T07:32:12.485Z,22.61
2022-08-09T07:33:16.637Z,22.50
2022-08-09T07:34:23.084Z,22.46
2022-08-09T07:35:29.601Z,22.69
2022-08-09T07:37:03.555Z,22.86
2022-08-09T07:38:07.441Z,23.17
2022-08-09T07:39:20.339Z,22.95
2022-08-09T07:41:00.962Z,23.01
2022-08-09T07:42:02.740Z,23.62
2022-08-09T07:43:14.710Z,23.52
2022-08-09T07:44:24.149Z,23.42
2022-08-09T07:45:46.574Z,23.58
2022-08-09T07:46:49.702Z,23.39
2022-08-09T07:48:04.047Z,23.59
2022-08-09T07:49:08.631Z,22.97
2022-08-09T07:50:32.983Z,23.45
2022-08-09T07:52:06.122Z,23.39
2022-08-09T07:53:02.825Z,23.51
2022-08-09T07:54:08.837Z,23.55
2022-08-09T07:55:15.540Z,23.89
2022-08-09T07:56:27.175Z,23.75
2022-08-09T07:57:35.845Z,23.93
2022-08-09T07:58:39.805Z,24.16
2022-08-09T07:59:51.993Z,24.16
2022-08-09T08:01:15.657Z,24.52
2022-08-09T08:02:25.270Z,24.56
2022-08-09T08:03:30.306Z,24.32
2022-08-09T08:04:33.458Z,24.48
2022-08-09T08:05:53.923Z,24.41
2022-08-09T08:07:27.116Z,24.32
2022-08-09T08:09:01.898Z,24.51
2022-08-09T08:10:07.492Z,24.52
2022-08-09T08:12:11.272Z,24.55
2022-08-09T08:12:37.037Z,24.53
2022-08-09T08:13:56.700Z,24.63
2022-08-09T08:15:03.165Z,25.36
2022-08-09T08:16:07.464Z,25.68
2022-08-09T08:17:52.045Z,25.66
2022-08-09T08:18:52.855Z,25.77
2022-08-09T08:19:56.511Z,25.34
2022-08-09T08:21:00.297Z,25.54
2022-08-09T08:22:03.743Z,25.50
2022-08-09T08:23:17.003Z,25.53
2022-08-09T08:24:19.977Z,25.04
2022-08-09T08:25:23.523Z,25.47
2022-08-09T08:26:56.225Z,25.50
2022-08-09T08:27:59.008Z,25.74
2022-08-09T08:29:01.287Z,25.48
2022-08-09T08:30:06.747Z,25.85
2022-08-09T08:31:14.548Z,26.49
2022-08-09T08:32:28.910Z,26.71
2022-08-09T08:33:49.693Z,26.14
2022-08-09T08:34:55.393Z,25.56
2022-08-09T08:36:03.837Z,25.76
2022-08-09T08:37:06.330Z,25.90
2022-08-09T08:38:17.800Z,25.97
2022-08-09T08:39:22.039Z,25.97
2022-08-09T08:40:24.567Z,26.56
2022-08-09T08:41:50.363Z,26.40
2022-08-09T08:42:54.485Z,26.07
2022-08-09T08:44:03.536Z,26.39
2022-08-09T08:45:13.344Z,26.41
2022-08-09T08:46:33.062Z,27.05
2022-08-09T08:47:42.904Z,26.52
2022-08-09T08:48:53.410Z,26.55
2022-08-09T08:49:58.271Z,26.82
2022-08-09T08:51:06.267Z,26.88
2022-08-09T08:52:10.379Z,26.79
2022-08-09T08:53:15.991Z,26.83
2022-08-09T08:54:28.075Z,26.81
2022-08-09T08:55:33.455Z,26.76
2022-08-09T08:56:41.280Z,27.53
2022-08-09T08:57:57.433Z,27.88
2022-08-09T08:59:18.752Z,28.30
2022-08-09T09:00:27.900Z,28.55
2022-08-09T09:01:45.016Z,28.71
2022-08-09T09:03:04.425Z,28.94
2022-08-09T09:04:13.036Z,29.07
2022-08-09T09:05:57.682Z,29.20
2022-08-09T09:06:48.411Z,27.92
2022-08-09T09:07:53.460Z,27.63
2022-08-09T09:08:59.622Z,27.36
2022-08-09T09:10:08.999Z,27.32
2022-08-09T09:11:17.408Z,27.47
2022-08-09T09:12:26.484Z,27.46
2022-08-09T09:13:47.491Z,27.67
2022-08-09T09:15:00.594Z,27.33
2022-08-09T09:16:03.267Z,27.42
2022-08-09T09:17:05.952Z,27.56
2022-08-09T09:18:16.542Z,27.47
2022-08-09T09:19:40.179Z,28.46
2022-08-09T09:20:45.982Z,28.91
2022-08-09T09:21:58.069Z,28.28
2022-08-09T09:23:01.959Z,27.86
2022-08-09T09:24:10.495Z,27.89
2022-08-09T09:26:03.840Z,27.73
2022-08-09T09:26:59.462Z,28.04
2022-08-09T09:28:08.078Z,28.66
2022-08-09T09:29:17.208Z,29.02
2022-08-09T09:30:39.748Z,28.77
2022-08-09T09:31:54.293Z,28.32
2022-08-09T09:33:13.668Z,28.16
2022-08-09T09:34:18.817Z,28.00
2022-08-09T09:35:21.210Z,28.46
2022-08-09T09:36:23.536Z,29.03
2022-08-09T09:37:31.628Z,29.62
2022-08-09T09:38:46.706Z,29.67
2022-08-09T09:39:57.023Z,28.25
2022-08-09T09:41:00.345Z,28.31
2022-08-09T09:42:08.924Z,28.87
2022-08-09T09:43:20.642Z,28.79
2022-08-09T09:44:35.235Z,28.31
2022-08-09T09:47:32.452Z,28.65
2022-08-09T09:48:35.816Z,28.01
2022-08-09T09:50:13.754Z,28.27
2022-08-09T09:51:26.130Z,28.09
2022-08-09T09:52:56.458Z,28.26
2022-08-09T09:54:20.681Z,28.66
2022-08-09T09:55:32.668Z,29.27
2022-08-09T09:58:00.303Z,29.08
2022-08-09T09:58:16.413Z,29.18
2022-08-09T09:59:35.562Z,28.54
2022-08-09T10:00:54.170Z,28.47
2022-08-09T10:02:02.422Z,28.96
2022-08-09T10:03:09.364Z,28.71
2022-08-09T10:04:23.111Z,28.19
2022-08-09T10:06:03.537Z,28.01
2022-08-09T10:06:57.666Z,27.85
2022-08-09T10:08:28.118Z,27.94
2022-08-09T10:09:29.398Z,27.91
2022-08-09T10:10:34.343Z,27.88
2022-08-09T10:12:01.412Z,28.16
2022-08-09T10:12:59.951Z,28.27
2022-08-09T10:14:03.656Z,28.11
2022-08-09T10:15:17.690Z,28.13
2022-08-09T10:16:56.521Z,28.27
2022-08-09T10:18:11.820Z,27.62
2022-08-09T10:19:15.775Z,27.74
2022-08-09T10:20:27.350Z,28.08
2022-08-09T10:21:46.027Z,27.76
2022-08-09T10:23:00.446Z,27.80
2022-08-09T10:24:04.941Z,28.34
2022-08-09T10:25:12.438Z,28.81
2022-08-09T10:26:19.509Z,28.73
2022-08-09T10:27:26.192Z,28.42
2022-08-09T10:28:38.636Z,28.64
2022-08-09T10:30:16.588Z,28.61
2022-08-09T10:32:40.099Z,28.01
2022-08-09T10:34:08.704Z,28.09
2022-08-09T10:35:13.320Z,28.16
2022-08-09T10:36:16.968Z,28.52
2022-08-09T10:37:23.988Z,28.95
2022-08-09T10:38:54.405Z,28.80
2022-08-09T10:40:03.486Z,29.29
2022-08-09T10:41:09.044Z,29.11
2022-08-09T10:42:14.138Z,29.02
2022-08-09T10:43:17.369Z,28.85
2022-08-09T10:44:28.565Z,29.34
2022-08-09T10:45:35.361Z,29.61
2022-08-09T10:46:57.655Z,29.28
2022-08-09T10:48:30.992Z,29.08
2022-08-09T10:49:51.545Z,30.24
2022-08-09T10:51:13.730Z,30.72
2022-08-09T10:52:38.112Z,30.85
2022-08-09T10:54:04.883Z,31.17
2022-08-09T10:55:29.044Z,29.70
2022-08-09T10:57:11.328Z,29.63
2022-08-09T10:58:34.544Z,29.35
2022-08-09T10:59:43.094Z,29.62
2022-08-09T11:03:03.300Z,29.81
2022-08-09T11:03:14.671Z,30.67
2022-08-09T11:04:19.989Z,30.41
2022-08-09T11:05:32.208Z,30.45
2022-08-09T11:06:37.373Z,30.33
2022-08-09T11:07:57.509Z,30.38
2022-08-09T11:09:15.817Z,29.99
2022-08-09T11:10:47.103Z,29.25
2022-08-09T11:11:58.708Z,29.93
2022-08-09T11:13:54.168Z,29.60
2022-08-09T11:14:51.358Z,30.29
2022-08-09T11:16:33.434Z,29.61
2022-08-09T11:17:41.857Z,30.01
2022-08-09T11:18:48.440Z,30.18
2022-08-09T11:20:11.184Z,29.56
2022-08-09T11:21:55.096Z,29.75
2022-08-09T11:23:10.283Z,30.53
2022-08-09T11:24:13.215Z,30.53
2022-08-09T11:25:19.138Z,30.67
2022-08-09T11:26:40.816Z,30.21
2022-08-09T11:28:03.582Z,30.04
2022-08-09T11:29:09.448Z,29.63
2022-08-09T11:30:33.048Z,29.33
2022-08-09T11:31:43.589Z,29.39
2022-08-09T11:33:01.345Z,29.16
2022-08-09T11:34:09.899Z,29.97
2022-08-09T11:35:34.989Z,29.84
2022-08-09T11:36:48.057Z,29.13
2022-08-09T11:37:53.079Z,29.20
2022-08-09T11:39:02.481Z,29.13
2022-08-09T11:40:07.255Z,29.24
2022-08-09T11:41:13.121Z,29.59
2022-08-09T11:42:49.601Z,29.55
2022-08-09T11:43:52.672Z,29.95
2022-08-09T11:44:55.312Z,29.67
2022-08-09T11:46:05.041Z,29.80
2022-08-09T11:47:14.326Z,29.48
2022-08-09T11:48:26.353Z,29.16
2022-08-09T11:50:53.222Z,29.54
2022-08-09T11:52:48.858Z,29.89
2022-08-09T11:53:02.799Z,29.69
2022-08-09T11:54:14.409Z,30.34
2022-08-09T11:55:53.878Z,31.09
2022-08-09T11:57:47.972Z,29.80
2022-08-09T11:59:01.718Z,29.28
2022-08-09T12:00:16.378Z,28.99
2022-08-09T12:02:15.742Z,28.94
2022-08-09T12:02:54.743Z,29.39
2022-08-09T12:04:06.228Z,29.77
2022-08-09T12:05:11.095Z,29.67
2022-08-09T12:06:26.436Z,29.77
2022-08-09T12:07:42.107Z,29.85
2022-08-09T12:08:53.985Z,30.06
2022-08-09T12:10:00.412Z,30.34
2022-08-09T12:11:04.896Z,30.00
2022-08-09T12:12:20.419Z,30.11
2022-08-09T12:14:10.441Z,29.90
2022-08-09T12:15:07.590Z,29.73
2022-08-09T12:16:30.598Z,30.09
2022-08-09T12:17:44.855Z,30.78
2022-08-09T12:18:53.798Z,31.21
2022-08-09T12:19:59.802Z,31.22
2022-08-09T12:21:26.449Z,30.87
2022-08-09T12:22:29.175Z,30.52
2022-08-09T12:23:47.534Z,31.03
2022-08-09T12:25:37.052Z,30.77
2022-08-09T12:26:41.765Z,31.40
2022-08-09T12:29:13.568Z,31.01
2022-08-09T12:29:29.766Z,31.03
2022-08-09T12:30:39.052Z,30.15
2022-08-09T12:32:02.507Z,30.29
2022-08-09T12:33:04.852Z,29.97
2022-08-09T12:34:07.149Z,29.84
2022-08-09T12:35:10.906Z,29.85
2022-08-09T12:36:31.776Z,29.70
2022-08-09T12:37:50.499Z,30.45
2022-08-09T12:38:55.313Z,30.36
2022-08-09T12:40:01.619Z,30.03
2022-08-09T12:41:04.694Z,30.13
2022-08-09T12:42:16.351Z,30.30
2022-08-09T12:43:20.883Z,30.27
2022-08-09T12:44:46.618Z,30.26
2022-08-09T12:45:59.824Z,30.59
2022-08-09T12:47:02.861Z,31.09
2022-08-09T12:48:20.070Z,30.81
2022-08-09T12:49:37.368Z,30.14
2022-08-09T12:50:41.266Z,30.02
2022-08-09T12:52:02.150Z,29.99
2022-08-09T12:53:17.850Z,30.38
2022-08-09T12:54:21.856Z,30.44
2022-08-09T12:56:14.284Z,30.90
2022-08-09T12:56:54.338Z,30.88
2022-08-09T12:57:59.008Z,30.87
2022-08-09T12:59:15.778Z,30.51
2022-08-09T13:00:25.093Z,30.83
2022-08-09T13:01:28.792Z,30.62
2022-08-09T13:02:54.036Z,30.41
2022-08-09T13:04:02.007Z,30.42
2022-08-09T13:05:04.730Z,30.74
2022-08-09T13:06:13.477Z,30.35
2022-08-09T13:07:19.795Z,30.76
2022-08-09T13:08:40.359Z,30.92
2022-08-09T13:09:52.790Z,31.49
2022-08-09T13:11:00.643Z,31.61
2022-08-09T13:12:15.784Z,30.85
2022-08-09T13:14:37.238Z,31.06
2022-08-09T13:15:07.462Z,31.41
2022-08-09T13:16:17.567Z,31.02
2022-08-09T13:17:44.089Z,30.90
2022-08-09T13:18:53.538Z,30.75
2022-08-09T13:20:09.599Z,31.16
2022-08-09T13:22:34.194Z,30.64
2022-08-09T13:23:01.422Z,30.24
2022-08-09T13:24:44.720Z,30.52
2022-08-09T13:25:54.369Z,30.10
2022-08-09T13:26:59.270Z,30.18
2022-08-09T13:28:09.819Z,29.79
2022-08-09T13:29:28.581Z,29.93
2022-08-09T13:31:11.084Z,30.05
2022-08-09T13:32:17.165Z,30.50
2022-08-09T13:33:23.901Z,31.33
2022-08-09T13:34:44.947Z,30.82
2022-08-09T13:36:38.496Z,30.78
2022-08-09T13:37:12.033Z,31.37
2022-08-09T13:38:17.578Z,31.51
2022-08-09T13:41:46.173Z,31.72
2022-08-09T13:41:55.139Z,31.61
2022-08-09T13:42:22.811Z,31.44
2022-08-09T13:43:35.688Z,31.27
2022-08-09T13:44:43.187Z,31.08
2022-08-09T13:46:42.760Z,31.18
2022-08-09T13:47:29.289Z,31.27
2022-08-09T13:48:32.025Z,30.59
2022-08-09T13:49:39.417Z,30.81
2022-08-09T13:50:57.778Z,30.43
2022-08-09T13:52:01.407Z,30.33
2022-08-09T13:53:03.945Z,31.00
2022-08-09T13:54:09.611Z,31.45
2022-08-09T13:55:17.613Z,31.29
2022-08-09T13:56:20.235Z,31.38
2022-08-09T13:57:37.179Z,31.74
2022-08-09T13:58:42.330Z,31.18
2022-08-09T13:59:44.613Z,30.85
2022-08-09T14:00:52.491Z,30.97
2022-08-09T14:02:00.549Z,31.37
2022-08-09T14:04:01.261Z,30.99
2022-08-09T14:04:28.022Z,31.51
2022-08-09T14:05:59.362Z,31.18
2022-08-09T14:06:58.181Z,30.65
2022-08-09T14:08:04.330Z,30.81
2022-08-09T14:09:07.369Z,30.89
2022-08-09T14:10:17.192Z,30.91
2022-08-09T14:11:31.316Z,30.51
2022-08-09T14:12:43.532Z,30.11
2022-08-09T14:14:22.280Z,30.28
2022-08-09T14:16:06.278Z,30.19
2022-08-09T14:16:32.382Z,30.26
2022-08-09T14:18:18.613Z,29.98
2022-08-09T14:18:59.435Z,30.31
2022-08-09T14:20:02.388Z,30.42
2022-08-09T14:21:06.631Z,30.65
2022-08-09T14:22:09.092Z,30.40
2022-08-09T14:23:20.291Z,30.51
2022-08-09T14:24:33.928Z,30.74
2022-08-09T14:25:42.937Z,30.88
2022-08-09T14:26:47.176Z,30.45
2022-08-09T14:27:58.823Z,30.11
2022-08-09T14:29:07.923Z,30.11
2022-08-09T14:30:41.348Z,30.43
2022-08-09T14:31:52.339Z,30.71
2022-08-09T14:32:56.100Z,30.74
2022-08-09T14:34:00.024Z,30.59
2022-08-09T14:35:07.807Z,30.31
2022-08-09T14:36:20.412Z,30.39
2022-08-09T14:37:28.506Z,30.39
2022-08-09T14:38:43.105Z,31.03
2022-08-09T14:39:48.354Z,31.30
2022-08-09T14:41:02.315Z,31.10
2022-08-09T14:42:31.827Z,31.13
2022-08-09T14:43:47.597Z,30.28
2022-08-09T14:44:59.348Z,30.19
2022-08-09T14:46:54.648Z,30.37
2022-08-09T14:47:39.906Z,29.97
2022-08-09T14:48:47.405Z,30.30
2022-08-09T14:50:02.121Z,30.54
2022-08-09T14:51:05.277Z,30.60
2022-08-09T14:52:07.664Z,30.48
2022-08-09T14:53:12.988Z,30.45
2022-08-09T14:54:16.743Z,30.48
2022-08-09T14:55:24.984Z,30.81
2022-08-09T14:56:27.380Z,30.64
2022-08-09T14:57:32.174Z,30.54
2022-08-09T14:58:46.213Z,30.58
2022-08-09T14:59:48.938Z,30.01
2022-08-09T15:00:52.189Z,30.09
2022-08-09T15:01:54.561Z,30.66
2022-08-09T15:02:58.394Z,30.42
2022-08-09T15:04:02.670Z,30.07
2022-08-09T15:05:07.051Z,30.17
2022-08-09T15:06:12.003Z,30.29
2022-08-09T15:07:17.242Z,30.52
2022-08-09T15:08:19.779Z,30.73
2022-08-09T15:10:04.136Z,30.83
2022-08-09T15:11:00.420Z,30.51
2022-08-09T15:12:08.212Z,30.05
2022-08-09T15:13:15.583Z,29.96
2022-08-09T15:14:19.293Z,29.93
2022-08-09T15:15:23.440Z,30.35
2022-08-09T15:16:30.657Z,30.16
2022-08-09T15:17:41.804Z,30.34
2022-08-09T15:18:48.413Z,30.65
2022-08-09T15:19:59.814Z,30.65
2022-08-09T15:21:57.455Z,30.54
2022-08-09T15:22:28.056Z,30.42
2022-08-09T15:24:02.513Z,30.27
2022-08-09T15:24:53.235Z,30.17
2022-08-09T15:25:57.387Z,30.39
2022-08-09T15:26:59.859Z,30.36
2022-08-09T15:28:03.629Z,30.40
2022-08-09T15:30:56.163Z,30.31